Time;durP1;ratioP1;P1;durP2;ratioP2;P2;SDS_P1;SDS_P2;PMS_P1;PMS_P2;Temp;Humidity;BMP_temperature;BMP_pressure;BME280_temperature;BME280_humidity;BME280_pressure;Samples;Min_cycle;Max_cycle;Signal;HPM_P1;HPM_P2
2021/10/31 00:00:48;;;;;;;28.45;22.13;;;;;;;11.65;64.94;100331.06;5013707;28;20037;-76
2021/10/31 00:03:16;;;;;;;30.02;22.50;;;;;;;11.37;64.93;100304.94;5013548;28;20105;-76
2021/10/31 00:05:42;;;;;;;25.52;20.85;;;;;;;10.93;64.71;100237.50;5013552;28;20080;-76
2021/10/31 00:08:07;;;;;;;25.00;19.83;;;;;;;10.88;64.65;100239.78;5013396;28;20029;-76
2021/10/31 00:10:33;;;;;;;29.25;21.05;;;;;;;11.21;64.63;100285.63;5013542;28;20033;-77
2021/10/31 00:12:59;;;;;;;25.13;19.00;;;;;;;10.88;64.71;100245.06;4995975;28;20033;-76
2021/10/31 00:15:24;;;;;;;25.33;21.08;;;;;;;10.94;64.76;100261.09;5013359;28;20040;-77
2021/10/31 00:17:51;;;;;;;30.48;19.45;;;;;;;10.71;64.69;100233.66;4995516;28;20034;-77
2021/10/31 00:20:16;;;;;;;29.00;22.98;;;;;;;11.17;65.02;100294.84;4995587;28;20032;-76
2021/10/31 00:22:44;;;;;;;27.10;21.70;;;;;;;11.32;64.67;100324.94;5013229;28;20029;-77
2021/10/31 00:25:10;;;;;;;25.77;20.77;;;;;;;11.19;65.00;100299.00;5013295;28;20029;-76
2021/10/31 00:27:36;;;;;;;25.80;22.02;;;;;;;11.21;65.22;100301.47;5013204;28;20030;-76
2021/10/31 00:30:02;;;;;;;25.88;20.65;;;;;;;11.09;64.66;100287.72;5013166;28;20517;-77
2021/10/31 00:32:28;;;;;;;27.35;21.55;;;;;;;10.89;64.49;100258.13;5012780;28;20168;-76
2021/10/31 00:34:53;;;;;;;23.58;19.42;;;;;;;10.76;64.44;100241.91;5012830;28;20534;-77
2021/10/31 00:37:19;;;;;;;24.75;18.73;;;;;;;11.07;64.24;100292.34;5012792;28;20479;-76
2021/10/31 00:39:44;;;;;;;24.13;20.35;;;;;;;11.02;64.77;100284.91;5012762;28;20105;-76
2021/10/31 00:42:09;;;;;;;22.73;19.67;;;;;;;11.18;64.67;100315.00;5013086;28;20034;-75
2021/10/31 00:44:35;;;;;;;24.33;18.77;;;;;;;10.59;64.62;100240.22;5013082;28;20061;-76
2021/10/31 00:47:00;;;;;;;23.90;19.38;;;;;;;10.90;65.25;100285.38;4995269;28;20042;-76
2021/10/31 00:49:26;;;;;;;25.33;19.92;;;;;;;11.03;64.63;100322.72;5012777;28;20037;-76
2021/10/31 00:51:52;;;;;;;24.70;20.75;;;;;;;10.83;64.91;100301.88;5012686;28;20030;-76
2021/10/31 00:54:17;;;;;;;23.63;19.98;;;;;;;10.66;64.95;100286.97;5012714;28;20040;-76
2021/10/31 00:56:43;;;;;;;26.15;20.02;;;;;;;10.76;65.09;100302.66;5012639;28;20030;-77
2021/10/31 00:59:08;;;;;;;25.35;20.20;;;;;;;10.08;64.58;100207.66;5012440;28;20034;-77
2021/10/31 01:01:34;;;;;;;24.50;20.27;;;;;;;10.42;65.05;100263.94;5012636;28;20514;-77
2021/10/31 01:04:00;;;;;;;25.88;20.77;;;;;;;10.60;65.02;100297.34;5012254;28;20076;-77
2021/10/31 01:06:46;;;;;;;25.48;20.25;;;;;;;10.64;65.50;100306.59;5012581;28;20395;-76
2021/10/31 01:09:37;;;;;;;28.65;21.20;;;;;;;10.56;65.18;100301.28;5012599;28;20479;-75
2021/10/31 01:12:32;;;;;;;22.90;19.80;;;;;;;10.49;65.17;100298.44;5012467;28;20049;-76
2021/10/31 01:15:10;;;;;;;25.42;20.55;;;;;;;10.54;64.82;100298.81;4994663;28;20037;-77
2021/10/31 01:18:07;;;;;;;26.73;21.48;;;;;;;10.53;65.08;100299.78;5011988;28;20029;-77
2021/10/31 01:21:04;;;;;;;28.77;23.83;;;;;;;10.28;64.70;100287.44;5012284;28;20041;-76
2021/10/31 01:23:44;;;;;;;30.90;23.50;;;;;;;10.39;64.92;100290.63;5011902;28;20025;-77
2021/10/31 01:26:51;;;;;;;29.45;22.92;;;;;;;10.34;65.24;100289.44;5012062;28;20022;-76
2021/10/31 01:29:38;;;;;;;25.88;21.95;;;;;;;10.30;65.16;100296.03;4984331;28;20122;-76
2021/10/31 01:32:06;;;;;;;23.90;19.75;;;;;;;10.32;65.24;100294.06;5012095;28;20065;-76
2021/10/31 01:34:47;;;;;;;29.02;21.00;;;;;;;10.34;64.96;100287.63;4994439;28;20120;-76
2021/10/31 01:37:39;;;;;;;24.95;19.83;;;;;;;10.34;64.95;100284.16;5012055;28;20101;-77
2021/10/31 01:40:32;;;;;;;24.23;19.42;;;;;;;10.34;64.75;100277.06;5012253;28;20092;-76
2021/10/31 01:43:07;;;;;;;26.25;20.73;;;;;;;9.90;64.93;100209.56;4994036;28;20029;-76
2021/10/31 01:45:57;;;;;;;27.77;21.30;;;;;;;10.26;65.04;100274.41;5011828;28;20034;-77
2021/10/31 01:48:50;;;;;;;30.35;20.38;;;;;;;9.88;64.89;100234.28;5011962;28;20033;-76
2021/10/31 01:51:27;;;;;;;26.58;21.48;;;;;;;10.08;65.24;100273.63;5011869;28;20033;-76
2021/10/31 01:53:52;;;;;;;25.58;21.38;;;;;;;10.14;65.29;100268.53;5011615;28;20521;-77
2021/10/31 01:56:20;;;;;;;25.00;20.15;;;;;;;10.00;65.12;100249.84;5011573;28;20053;-77
2021/10/31 01:59:03;;;;;;;25.50;20.23;;;;;;;9.85;65.02;100212.66;5011798;28;20037;-77
2021/10/31 02:01:31;;;;;;;23.92;19.67;;;;;;;10.22;65.10;100270.44;5011857;28;20068;-76
2021/10/31 02:04:01;;;;;;;24.77;19.02;;;;;;;9.85;64.83;100213.50;5011665;28;20102;-76
2021/10/31 02:06:27;;;;;;;22.25;18.25;;;;;;;10.17;65.16;100275.31;5011674;28;20021;-76
2021/10/31 02:08:55;;;;;;;21.95;19.17;;;;;;;9.61;65.04;100197.50;5011521;28;20422;-76
2021/10/31 02:11:22;;;;;;;25.25;19.15;;;;;;;9.97;65.10;100268.63;4993788;28;20061;-77
2021/10/31 02:13:50;;;;;;;24.98;18.92;;;;;;;9.60;65.13;100198.50;4993767;28;20033;-76
2021/10/31 02:16:17;;;;;;;25.20;19.35;;;;;;;10.08;65.52;100273.63;5011355;28;20032;-76
2021/10/31 02:18:46;;;;;;;25.98;19.58;;;;;;;9.66;65.04;100215.50;5011477;28;20044;-75
2021/10/31 02:21:15;;;;;;;26.45;18.25;;;;;;;10.19;65.13;100270.72;5011238;28;20473;-76
2021/10/31 02:23:41;;;;;;;25.92;18.33;;;;;;;10.14;65.22;100259.81;5011448;28;20030;-76
2021/10/31 02:26:07;;;;;;;26.85;18.65;;;;;;;10.09;64.98;100251.53;5012800;28;20037;-76
2021/10/31 02:28:37;;;;;;;24.77;18.10;;;;;;;9.71;65.06;100192.16;4997482;28;20026;-76
2021/10/31 02:31:03;;;;;;;21.38;17.55;;;;;;;10.24;64.82;100276.38;5015080;28;20030;-76
2021/10/31 02:33:29;;;;;;;23.23;16.40;;;;;;;9.76;65.05;100200.41;5015040;28;20030;-76
2021/10/31 02:35:55;;;;;;;22.13;18.42;;;;;;;10.23;65.11;100266.81;5014870;28;20041;-76
2021/10/31 02:38:21;;;;;;;24.60;17.77;;;;;;;10.22;65.07;100259.88;5015011;28;20560;-75
2021/10/31 02:40:46;;;;;;;24.13;18.60;;;;;;;10.13;64.81;100244.94;5014873;28;20030;-76
2021/10/31 02:43:11;;;;;;;27.42;19.10;;;;;;;9.67;64.93;100175.00;5014913;28;20392;-76
2021/10/31 02:45:37;;;;;;;25.35;19.38;;;;;;;9.87;65.14;100218.63;5014881;28;20033;-77
2021/10/31 02:48:09;;;;;;;27.13;18.73;;;;;;;9.55;65.15;100150.69;4997432;28;20161;-77
2021/10/31 02:50:39;;;;;;;24.25;18.98;;;;;;;10.33;64.79;100264.03;4997371;28;20022;-76
2021/10/31 02:53:21;;;;;;;25.60;19.23;;;;;;;10.35;65.39;100268.19;5014710;28;20102;-75
2021/10/31 02:55:55;;;;;;;26.48;20.70;;;;;;;10.31;65.40;100260.72;4997247;28;20032;-75
2021/10/31 02:58:25;;;;;;;25.40;20.42;;;;;;;10.12;65.27;100238.03;4997241;28;20049;-77
2021/10/31 03:00:55;;;;;;;25.73;20.13;;;;;;;9.82;65.27;100183.97;5014886;28;20509;-76
2021/10/31 03:03:21;;;;;;;28.27;20.35;;;;;;;9.92;65.24;100213.69;5014571;28;20030;-76
2021/10/31 03:05:52;;;;;;;27.85;20.27;;;;;;;10.24;65.61;100246.50;5014606;28;20080;-75
2021/10/31 03:08:18;;;;;;;28.43;20.13;;;;;;;9.90;65.09;100196.38;5014579;28;20025;-76
2021/10/31 03:10:55;;;;;;;27.08;20.45;;;;;;;10.40;65.04;100268.56;5014509;28;20304;-76
2021/10/31 03:13:21;;;;;;;28.35;21.13;;;;;;;10.48;64.98;100278.31;4996639;28;20084;-77
2021/10/31 03:15:46;;;;;;;29.98;20.70;;;;;;;10.33;65.05;100242.94;5014628;28;20026;-77
2021/10/31 03:18:12;;;;;;;30.65;21.33;;;;;;;9.92;65.17;100178.56;5014349;28;20116;-76
2021/10/31 03:20:39;;;;;;;29.15;22.02;;;;;;;10.50;64.89;100277.16;5014556;28;20022;-76
2021/10/31 03:23:04;;;;;;;29.58;20.38;;;;;;;9.99;65.38;100192.78;4996653;28;20029;-76
2021/10/31 03:25:29;;;;;;;26.90;19.33;;;;;;;9.91;65.17;100183.03;5014234;28;20383;-76
2021/10/31 03:27:55;;;;;;;28.27;20.13;;;;;;;10.29;65.01;100236.31;5014219;28;20037;-76
2021/10/31 03:30:20;;;;;;;27.17;20.02;;;;;;;10.49;65.51;100266.78;5014334;28;20033;-77
2021/10/31 03:32:46;;;;;;;28.20;21.48;;;;;;;9.72;65.49;100133.16;5014639;28;20032;-77
2021/10/31 03:35:12;;;;;;;30.98;24.98;;;;;;;9.88;65.31;100165.69;4996674;28;20030;-75
2021/10/31 03:37:38;;;;;;;26.55;21.33;;;;;;;10.37;65.32;100225.78;5013646;28;20030;-76
2021/10/31 03:40:04;;;;;;;28.95;23.55;;;;;;;10.37;65.65;100228.41;5014002;28;20038;-75
2021/10/31 03:42:29;;;;;;;37.47;24.55;;;;;;;10.53;65.78;100269.91;5013941;28;20418;-77
2021/10/31 03:44:55;;;;;;;30.23;24.85;;;;;;;10.14;65.32;100207.84;5014058;28;20084;-76
2021/10/31 03:47:23;;;;;;;30.65;24.88;;;;;;;10.17;65.51;100204.91;5014030;28;20512;-76
2021/10/31 03:49:49;;;;;;;32.65;23.90;;;;;;;10.21;65.54;100210.72;5013897;28;20026;-76
2021/10/31 03:52:14;;;;;;;28.05;22.98;;;;;;;10.45;65.68;100250.41;5013834;28;20052;-76
2021/10/31 03:54:40;;;;;;;32.95;23.38;;;;;;;10.12;65.67;100186.06;5013791;28;20498;-76
2021/10/31 03:57:06;;;;;;;30.90;24.65;;;;;;;10.26;65.40;100197.03;5013443;28;20022;-76
2021/10/31 03:59:31;;;;;;;28.02;23.33;;;;;;;10.40;65.32;100205.19;5013666;28;20392;-77
2021/10/31 04:01:56;;;;;;;29.15;23.50;;;;;;;10.70;65.68;100268.97;5013457;28;20040;-77
2021/10/31 04:04:22;;;;;;;27.17;22.95;;;;;;;10.13;65.62;100171.06;5013289;28;20030;-76
2021/10/31 04:06:47;;;;;;;29.90;24.15;;;;;;;10.64;65.48;100269.63;5013612;28;20097;-75
2021/10/31 04:09:13;;;;;;;29.60;24.75;;;;;;;10.63;66.03;100252.94;5013493;28;20092;-76
2021/10/31 04:11:38;;;;;;;31.45;24.17;;;;;;;10.67;65.85;100259.56;5013343;28;20018;-77
2021/10/31 04:14:04;;;;;;;26.90;22.73;;;;;;;10.49;65.92;100217.44;5013276;28;20029;-76
2021/10/31 04:16:29;;;;;;;29.25;23.35;;;;;;;9.92;65.66;100124.00;4995604;28;20025;-76
2021/10/31 04:18:55;;;;;;;31.42;24.45;;;;;;;10.24;65.64;100175.25;5013463;28;20057;-77
2021/10/31 04:21:21;;;;;;;29.05;24.27;;;;;;;10.68;65.49;100242.72;5013438;28;20038;-76
2021/10/31 04:23:46;;;;;;;29.60;24.33;;;;;;;10.37;65.30;100187.00;4995670;28;20033;-77
2021/10/31 04:26:12;;;;;;;30.70;25.58;;;;;;;10.25;65.82;100179.56;5013114;28;20021;-76
2021/10/31 04:28:37;;;;;;;29.85;24.77;;;;;;;10.46;66.10;100203.72;4995546;28;20462;-76
2021/10/31 04:31:03;;;;;;;35.22;26.02;;;;;;;10.76;66.01;100247.22;4995631;28;20029;-76
2021/10/31 04:33:28;;;;;;;33.35;26.88;;;;;;;10.20;66.17;100156.28;5013138;28;20494;-75
2021/10/31 04:35:53;;;;;;;33.53;26.60;;;;;;;10.47;66.25;100195.66;5012928;28;20108;-76
2021/10/31 04:38:22;;;;;;;30.38;25.52;;;;;;;10.46;65.93;100194.00;5013166;28;20065;-76
2021/10/31 04:40:48;;;;;;;31.60;25.23;;;;;;;10.50;66.28;100208.53;5012866;28;20116;-76
2021/10/31 04:43:14;;;;;;;33.50;26.48;;;;;;;10.76;66.40;100240.09;5012770;28;20102;-76
2021/10/31 04:45:41;;;;;;;33.08;26.98;;;;;;;10.70;66.46;100226.72;5012704;28;20030;-75
2021/10/31 04:48:08;;;;;;;44.58;34.83;;;;;;;10.72;66.36;100220.28;5012050;28;21023;-76
2021/10/31 04:50:34;;;;;;;39.17;30.48;;;;;;;10.38;66.02;100162.28;5012258;28;20060;-76
2021/10/31 04:53:00;;;;;;;36.35;29.52;;;;;;;10.90;65.91;100237.81;5012654;28;20021;-77
2021/10/31 04:55:26;;;;;;;37.17;29.73;;;;;;;10.90;66.58;100243.94;5012594;28;20030;-77
2021/10/31 04:57:51;;;;;;;46.50;38.10;;;;;;;10.40;66.25;100164.75;5012582;28;20486;-76
2021/10/31 05:00:17;;;;;;;37.42;30.73;;;;;;;10.56;66.19;100183.28;5012652;28;20029;-76
2021/10/31 05:02:42;;;;;;;37.55;30.65;;;;;;;10.74;66.48;100213.03;5012526;28;20021;-77
2021/10/31 05:05:08;;;;;;;37.28;30.15;;;;;;;10.48;66.28;100162.97;5012442;28;20022;-77
2021/10/31 05:07:34;;;;;;;35.65;28.42;;;;;;;10.60;66.74;100178.50;5012399;28;20018;-76
2021/10/31 05:09:59;;;;;;;39.50;29.80;;;;;;;10.63;66.90;100181.66;5012243;28;20080;-75
2021/10/31 05:12:27;;;;;;;32.97;27.63;;;;;;;10.93;66.34;100233.03;4994708;28;20018;-76
2021/10/31 05:14:53;;;;;;;38.75;29.35;;;;;;;10.93;66.83;100233.03;5012435;28;20124;-76
2021/10/31 05:17:19;;;;;;;39.55;29.55;;;;;;;10.48;66.86;100157.69;5011985;28;20233;-76
2021/10/31 05:19:44;;;;;;;39.13;31.63;;;;;;;10.52;66.66;100155.56;5012287;28;20033;-76
2021/10/31 05:22:10;;;;;;;37.42;29.65;;;;;;;10.99;66.15;100231.56;5012221;28;20512;-76
2021/10/31 05:24:35;;;;;;;36.17;30.70;;;;;;;10.96;66.74;100231.88;5012142;28;20534;-76
2021/10/31 05:27:01;;;;;;;40.10;32.30;;;;;;;10.31;67.00;100118.19;5011946;28;20075;-76
2021/10/31 05:29:26;;;;;;;44.38;33.70;;;;;;;10.66;67.29;100173.41;4994448;28;20100;-76
2021/10/31 05:31:51;;;;;;;41.40;31.40;;;;;;;10.83;66.67;100198.00;5011987;28;20021;-76
2021/10/31 05:34:17;;;;;;;41.65;32.35;;;;;;;11.05;66.73;100236.19;5011871;28;20036;-76
2021/10/31 05:36:42;;;;;;;39.75;34.50;;;;;;;10.99;66.70;100213.88;5011783;28;20022;-76
2021/10/31 05:39:08;;;;;;;48.22;39.00;;;;;;;11.01;66.96;100208.44;5011933;28;20517;-76
2021/10/31 05:41:33;;;;;;;45.55;36.45;;;;;;;10.30;66.25;100093.63;5011903;28;20017;-76
2021/10/31 05:43:59;;;;;;;43.03;36.42;;;;;;;11.19;67.08;100222.34;5011703;28;20479;-76
2021/10/31 05:46:24;;;;;;;46.83;36.13;;;;;;;10.61;66.51;100138.75;5011789;28;20025;-76
2021/10/31 05:48:50;;;;;;;43.38;35.90;;;;;;;11.23;66.63;100228.94;5011638;28;20534;-76
2021/10/31 05:51:15;;;;;;;39.20;33.03;;;;;;;11.23;66.22;100222.84;5011662;28;20048;-76
2021/10/31 05:53:41;;;;;;;41.38;33.75;;;;;;;11.27;66.69;100217.06;5011688;28;20510;-76
2021/10/31 05:56:08;;;;;;;39.28;32.28;;;;;;;10.84;66.46;100152.13;4993956;28;20049;-76
2021/10/31 05:58:33;;;;;;;35.78;30.38;;;;;;;11.34;66.93;100230.44;5011805;28;20083;-76
2021/10/31 06:00:59;;;;;;;38.38;30.75;;;;;;;10.83;66.04;100156.56;4993809;28;20022;-75
2021/10/31 06:03:24;;;;;;;42.05;34.15;;;;;;;10.82;66.38;100135.63;5011680;28;20018;-76
2021/10/31 06:05:50;;;;;;;35.63;30.30;;;;;;;11.22;66.16;100215.91;5011756;28;20560;-76
2021/10/31 06:08:17;;;;;;;45.03;36.17;;;;;;;10.87;65.84;100137.75;5011621;28;20026;-77
2021/10/31 06:10:47;;;;;;;41.50;32.10;;;;;;;11.46;66.69;100219.34;5011595;28;20052;-77
2021/10/31 06:13:13;;;;;;;42.85;33.17;;;;;;;11.43;66.18;100218.84;5011513;28;20029;-76
2021/10/31 06:15:38;;;;;;;45.47;34.83;;;;;;;11.57;65.97;100249.09;5011538;28;20099;-76
2021/10/31 06:18:04;;;;;;;40.33;30.85;;;;;;;11.62;65.54;100233.53;5011216;28;20073;-76
2021/10/31 06:20:30;;;;;;;52.85;38.88;;;;;;;11.69;66.30;100239.81;5011414;28;20503;-76
2021/10/31 06:22:55;;;;;;;44.05;35.28;;;;;;;11.63;65.56;100225.44;5011283;28;20030;-76
2021/10/31 06:25:21;;;;;;;38.92;31.02;;;;;;;11.64;65.61;100223.63;5011184;28;20037;-77
2021/10/31 06:27:46;;;;;;;41.15;33.55;;;;;;;11.55;65.88;100211.41;5011443;28;20029;-76
2021/10/31 06:30:12;;;;;;;36.90;31.40;;;;;;;11.85;65.33;100246.91;5011225;28;20026;-76
2021/10/31 06:32:38;;;;;;;39.47;31.75;;;;;;;11.88;65.23;100255.34;5011415;28;20022;-76
2021/10/31 06:35:04;;;;;;;35.08;28.52;;;;;;;11.42;65.07;100173.09;4993770;28;20022;-76
2021/10/31 06:37:29;;;;;;;34.75;29.45;;;;;;;11.59;65.24;100204.78;5011141;28;20021;-76
2021/10/31 06:39:56;;;;;;;36.78;30.30;;;;;;;11.44;65.54;100155.22;5011434;28;20033;-77
2021/10/31 06:42:22;;;;;;;36.45;30.70;;;;;;;11.98;65.36;100250.72;5011169;28;20061;-77
2021/10/31 06:44:48;;;;;;;35.13;28.70;;;;;;;11.36;65.35;100144.66;5010949;28;20022;-78
2021/10/31 06:47:16;;;;;;;34.78;27.63;;;;;;;11.51;65.39;100188.94;5011000;28;20021;-77
2021/10/31 06:49:42;;;;;;;39.67;29.65;;;;;;;11.46;65.62;100173.56;5011073;28;20030;-75
2021/10/31 06:52:08;;;;;;;44.72;31.98;;;;;;;11.91;65.40;100239.16;5010957;28;20018;-75
2021/10/31 06:54:33;;;;;;;45.47;33.90;;;;;;;12.02;65.41;100253.84;5011244;28;20022;-76
2021/10/31 06:56:59;;;;;;;43.22;33.53;;;;;;;11.73;65.20;100210.19;5010905;28;20483;-76
2021/10/31 06:59:24;;;;;;;39.90;30.92;;;;;;;11.96;65.19;100247.41;5010976;28;20033;-76
2021/10/31 07:01:50;;;;;;;41.67;31.42;;;;;;;11.27;65.51;100118.41;5011081;28;20030;-77
2021/10/31 07:04:15;;;;;;;37.22;31.05;;;;;;;11.67;65.13;100178.31;5010808;28;20109;-76
2021/10/31 07:06:41;;;;;;;42.15;30.50;;;;;;;11.67;65.10;100173.84;5010931;28;20032;-76
2021/10/31 07:09:06;;;;;;;38.65;30.63;;;;;;;11.56;65.52;100161.00;5011049;28;20095;-76
2021/10/31 07:11:32;;;;;;;44.25;34.75;;;;;;;11.85;65.07;100188.72;5011276;28;20053;-76
2021/10/31 07:13:57;;;;;;;45.67;35.08;;;;;;;11.96;65.09;100210.38;4996965;28;20026;-76
2021/10/31 07:16:22;;;;;;;51.75;36.53;;;;;;;11.75;65.09;100170.34;5014218;28;20045;-76
2021/10/31 07:18:48;;;;;;;49.03;37.80;;;;;;;11.77;65.10;100173.66;5014354;28;20022;-77
2021/10/31 07:21:13;;;;;;;47.67;35.58;;;;;;;12.02;64.80;100195.63;5014379;28;20029;-77
2021/10/31 07:23:39;;;;;;;48.20;37.00;;;;;;;11.87;64.90;100157.63;5014425;28;20052;-75
2021/10/31 07:26:04;;;;;;;33.97;28.52;;;;;;;12.15;65.11;100211.78;5014319;28;20022;-76
2021/10/31 07:28:30;;;;;;;34.88;27.63;;;;;;;12.39;64.46;100239.97;5014014;28;20026;-76
2021/10/31 07:30:56;;;;;;;32.22;27.00;;;;;;;12.52;64.43;100240.25;5014016;28;20419;-76
2021/10/31 07:33:22;;;;;;;32.25;26.27;;;;;;;12.29;64.23;100219.00;5014130;28;20021;-76
2021/10/31 07:35:48;;;;;;;29.38;23.27;;;;;;;12.52;64.36;100227.00;5013781;28;20105;-76
2021/10/31 07:38:14;;;;;;;33.22;24.83;;;;;;;12.09;63.96;100156.88;5014074;28;20467;-76
2021/10/31 07:40:40;;;;;;;27.52;21.30;;;;;;;12.08;63.98;100144.66;5013993;28;20033;-76
2021/10/31 07:43:05;;;;;;;26.08;19.42;;;;;;;12.70;64.02;100226.75;5014060;28;20026;-76
2021/10/31 07:45:32;;;;;;;20.15;17.02;;;;;;;12.61;63.94;100209.22;5013961;28;20487;-77
2021/10/31 07:47:59;;;;;;;21.38;17.88;;;;;;;12.25;63.54;100148.84;5013957;28;20029;-75
2021/10/31 07:50:25;;;;;;;26.50;18.40;;;;;;;12.51;63.45;100182.97;5013879;28;20044;-76
2021/10/31 07:52:50;;;;;;;17.85;15.15;;;;;;;12.60;63.11;100189.88;5013775;28;20018;-76
2021/10/31 07:55:18;;;;;;;18.40;15.48;;;;;;;12.55;62.57;100173.66;5013876;28;20609;-77
2021/10/31 07:57:46;;;;;;;20.08;14.80;;;;;;;12.57;62.45;100182.25;5013692;28;20028;-77
2021/10/31 08:00:12;;;;;;;15.82;13.63;;;;;;;12.95;61.89;100232.72;5013633;28;20033;-75
2021/10/31 08:02:38;;;;;;;15.90;13.85;;;;;;;12.99;61.76;100247.28;5013713;28;20029;-77
2021/10/31 08:05:04;;;;;;;18.45;14.93;;;;;;;13.02;61.76;100225.72;5013513;28;20026;-76
2021/10/31 08:07:30;;;;;;;17.38;14.60;;;;;;;13.01;61.49;100216.09;5013653;28;20026;-77
2021/10/31 08:09:59;;;;;;;16.27;13.75;;;;;;;12.74;61.30;100156.50;5013695;28;20041;-76
2021/10/31 08:12:27;;;;;;;21.55;16.83;;;;;;;12.94;61.44;100186.84;5013541;28;20025;-76
2021/10/31 08:14:52;;;;;;;21.63;17.23;;;;;;;12.74;61.21;100161.81;4995538;28;20406;-76
2021/10/31 08:17:18;;;;;;;29.60;23.08;;;;;;;12.55;60.84;100123.34;5013025;28;20105;-75
2021/10/31 08:19:43;;;;;;;16.70;14.70;;;;;;;12.67;60.88;100143.16;4995528;28;20118;-76
2021/10/31 08:22:08;;;;;;;19.77;14.90;;;;;;;12.61;60.56;100127.09;5013182;28;20032;-76
2021/10/31 08:24:34;;;;;;;18.77;15.50;;;;;;;12.46;60.57;100097.09;4994600;28;20025;-76
2021/10/31 08:27:00;;;;;;;15.25;13.45;;;;;;;13.22;60.95;100218.13;5013162;28;20495;-75
2021/10/31 08:29:25;;;;;;;19.98;15.88;;;;;;;12.97;60.48;100188.31;4995538;28;20025;-76
2021/10/31 08:31:54;;;;;;;20.42;14.23;;;;;;;13.14;60.24;100205.72;5013295;28;20411;-76
2021/10/31 08:34:20;;;;;;;18.35;14.88;;;;;;;12.86;60.73;100171.00;5013155;28;20080;-76
2021/10/31 08:36:45;;;;;;;21.92;17.20;;;;;;;12.62;60.89;100132.22;5012901;28;20026;-77
2021/10/31 08:39:11;;;;;;;18.42;16.05;;;;;;;12.77;61.42;100161.47;5012978;28;20083;-76
2021/10/31 08:41:37;;;;;;;21.02;14.88;;;;;;;12.91;61.21;100178.41;5012706;28;20017;-76
2021/10/31 08:44:03;;;;;;;23.00;15.75;;;;;;;12.82;61.38;100160.94;4995443;28;20064;-75
2021/10/31 08:46:31;;;;;;;22.73;17.98;;;;;;;13.00;61.39;100204.69;5012974;28;20018;-76
2021/10/31 08:48:58;;;;;;;21.00;17.00;;;;;;;13.08;61.46;100218.88;5013009;28;20026;-76
2021/10/31 08:51:25;;;;;;;21.50;17.48;;;;;;;12.89;62.02;100188.38;5012636;28;20018;-76
2021/10/31 08:53:55;;;;;;;24.73;19.60;;;;;;;12.69;61.97;100158.88;5012479;28;20052;-76
2021/10/31 08:56:27;;;;;;;20.80;17.73;;;;;;;12.69;61.73;100158.88;5012405;28;20018;-76
2021/10/31 08:58:53;;;;;;;21.52;18.08;;;;;;;12.97;61.81;100198.91;5012612;28;20490;-77
2021/10/31 09:01:18;;;;;;;20.67;17.85;;;;;;;13.08;62.00;100208.28;5012348;28;20108;-76
2021/10/31 09:03:45;;;;;;;20.33;17.33;;;;;;;12.60;61.85;100128.09;5012499;28;20025;-77
2021/10/31 09:06:11;;;;;;;26.70;19.17;;;;;;;13.15;61.85;100203.91;4994855;28;20022;-76
2021/10/31 09:08:38;;;;;;;21.27;16.60;;;;;;;13.15;61.52;100209.19;5012582;28;20538;-76
2021/10/31 09:11:04;;;;;;;18.90;15.95;;;;;;;13.18;61.38;100203.56;4994824;28;20026;-76
2021/10/31 09:13:30;;;;;;;17.75;13.73;;;;;;;13.03;60.93;100172.50;5012356;28;20033;-76
2021/10/31 09:15:55;;;;;;;20.30;14.80;;;;;;;12.80;60.97;100154.97;5012173;28;20018;-76
2021/10/31 09:18:21;;;;;;;16.67;14.98;;;;;;;13.20;60.79;100210.34;5012015;28;20037;-77
2021/10/31 09:20:47;;;;;;;17.17;13.82;;;;;;;12.84;60.82;100140.38;5012212;28;20022;-76
2021/10/31 09:23:13;;;;;;;19.58;14.23;;;;;;;13.18;60.94;100193.78;5012319;28;20079;-76
2021/10/31 09:25:39;;;;;;;16.70;14.38;;;;;;;12.91;60.34;100138.66;5012032;28;20169;-76
2021/10/31 09:28:06;;;;;;;15.57;13.95;;;;;;;13.19;60.46;100187.50;5012054;28;20554;-75
2021/10/31 09:30:35;;;;;;;18.63;14.60;;;;;;;13.39;60.32;100185.19;5011993;28;20414;-75
2021/10/31 09:33:02;;;;;;;16.40;13.70;;;;;;;12.91;59.81;100093.59;5012058;28;20022;-77
2021/10/31 09:35:30;;;;;;;15.00;13.23;;;;;;;13.10;59.53;100124.06;5011567;28;20026;-75
2021/10/31 09:38:00;;;;;;;17.35;14.05;;;;;;;13.20;59.18;100125.50;5011917;28;20022;-76
2021/10/31 09:40:26;;;;;;;15.15;13.43;;;;;;;13.24;59.22;100131.25;5011859;28;20481;-76
2021/10/31 09:42:54;;;;;;;17.90;14.23;;;;;;;13.05;58.97;100084.84;5011605;28;20125;-76
2021/10/31 09:45:21;;;;;;;17.17;11.90;;;;;;;13.43;58.75;100143.19;5011715;28;20426;-76
2021/10/31 09:48:11;;;;;;;11.98;10.50;;;;;;;13.50;58.24;100158.22;5011722;28;20014;-77
2021/10/31 09:50:42;;;;;;;14.23;11.38;;;;;;;13.68;58.20;100163.97;5012054;28;20104;-76
2021/10/31 09:53:10;;;;;;;12.57;11.27;;;;;;;13.67;57.79;100156.22;4994163;28;20151;-75
2021/10/31 09:55:35;;;;;;;14.38;11.90;;;;;;;13.58;58.05;100134.25;5010436;28;20045;-75
2021/10/31 09:58:05;;;;;;;14.43;11.10;;;;;;;13.76;57.73;100147.16;5011596;28;20104;-76
2021/10/31 10:00:44;;;;;;;12.68;11.30;;;;;;;13.60;57.54;100107.53;4994154;28;20088;-76
2021/10/31 10:03:36;;;;;;;14.70;10.13;;;;;;;13.90;57.52;100145.47;5011482;28;20025;-75
2021/10/31 10:06:25;;;;;;;;;;;;;;;13.87;57.39;100133.41;4994148;28;20022;-77
2021/10/31 10:09:09;;;;;;;15.13;9.88;;;;;;;14.03;57.27;100134.22;5003506;28;19916;-76
2021/10/31 10:11:40;;;;;;;14.95;11.27;;;;;;;14.08;56.83;100145.91;5011508;28;20022;-75
2021/10/31 10:14:24;;;;;;;14.20;11.70;;;;;;;14.08;57.03;100126.50;5011782;28;20029;-76
2021/10/31 10:16:59;;;;;;;13.50;11.50;;;;;;;13.81;56.77;100091.69;5011356;28;20046;-76
2021/10/31 10:19:29;;;;;;;14.35;12.50;;;;;;;14.17;56.74;100123.59;5011074;28;20022;-77
2021/10/31 10:22:02;;;;;;;14.00;11.60;;;;;;;13.93;56.94;100092.84;5011112;28;20029;-76
2021/10/31 10:24:30;;;;;;;14.77;13.18;;;;;;;14.18;56.91;100119.91;5011680;28;20504;-76
2021/10/31 10:26:59;;;;;;;12.98;11.40;;;;;;;14.21;56.92;100110.75;5011248;28;20093;-76
2021/10/31 10:29:30;;;;;;;16.08;13.05;;;;;;;14.32;57.01;100110.25;5011385;28;20025;-76
2021/10/31 10:32:03;;;;;;;15.35;11.48;;;;;;;13.86;56.71;100028.25;5011365;28;20033;-76
2021/10/31 10:34:34;;;;;;;13.68;11.30;;;;;;;14.32;56.82;100089.84;5011354;28;20112;-76
2021/10/31 10:37:06;;;;;;;14.80;12.05;;;;;;;13.98;56.81;100023.25;5011230;28;20095;-76
2021/10/31 10:39:35;;;;;;;15.75;12.73;;;;;;;14.52;56.77;100105.19;5011390;28;20026;-75
2021/10/31 10:42:01;;;;;;;15.27;13.43;;;;;;;14.33;56.75;100074.72;5011417;28;20029;-76
2021/10/31 10:44:33;;;;;;;17.13;14.02;;;;;;;14.55;56.73;100108.28;5011444;28;20096;-76
2021/10/31 10:47:04;;;;;;;16.55;13.32;;;;;;;14.48;56.86;100094.09;5012688;28;20104;-76
2021/10/31 10:49:32;;;;;;;16.02;13.55;;;;;;;14.51;57.15;100093.72;4997481;28;20021;-75
2021/10/31 10:52:04;;;;;;;14.82;13.13;;;;;;;14.54;56.83;100093.34;5015105;28;20018;-76
2021/10/31 10:54:30;;;;;;;15.57;13.52;;;;;;;14.62;56.87;100090.56;5015022;28;20022;-76
2021/10/31 10:57:07;;;;;;;14.43;12.25;;;;;;;14.48;56.88;100067.53;5014901;28;20084;-76
2021/10/31 10:59:34;;;;;;;13.98;12.00;;;;;;;14.50;56.39;100057.53;5015037;28;20021;-76
2021/10/31 11:02:13;;;;;;;15.43;12.68;;;;;;;13.95;55.96;99947.47;5014826;28;20076;-75
2021/10/31 11:04:45;;;;;;;14.05;12.63;;;;;;;14.34;56.50;100011.78;5014657;28;20412;-76
2021/10/31 11:07:11;;;;;;;17.70;14.25;;;;;;;14.81;56.35;100075.78;5014796;28;20028;-76
2021/10/31 11:09:39;;;;;;;14.98;11.82;;;;;;;14.84;56.38;100070.09;5014722;28;20030;-75
2021/10/31 11:12:23;;;;;;;16.77;14.05;;;;;;;14.87;56.15;100072.38;5014645;28;20030;-76
2021/10/31 11:14:50;;;;;;;17.88;14.50;;;;;;;14.84;56.27;100071.91;4996858;28;20022;-76